KTCS/TCS METAR and TAF weather

Enter ICAO airport designator
Station Type Date Time Source
KTCS METAR 2021/03/07 07:53 UTC NOAA

KTCS 070753Z AUTO 31008KT 10SM CLR 06/M07 A3015 RMK AO2 SLP170 T00611072


Station Type Date Time Source
KTCS Decoded METAR 2021/03/07 07:53 UTC NOAA

TRUTH OR CONSEQUENCES MUNI, NM, United States (KTCS) 33-14N 107-16W 1469M
Mar 07, 2021 - 02:53 AM EST / 2021.03.07 0753 UTC
Wind: from the NW (310 degrees) at 9 MPH (8 KT):0
Visibility: 10 mile(s):0
Sky conditions: clear
Temperature: 43.0 F (6.1 C)
Dew Point: 19.0 F (-7.2 C)
Relative Humidity: 37%
Pressure (altimeter): 30.15 in. Hg (1020 hPa)
ob: KTCS 070753Z AUTO 31008KT 10SM CLR 06/M07 A3015 RMK AO2 SLP170 T00611072
cycle: 8

Station Type Date Time Source
KTCS TAF 2021/03/07 06:22 UTC NOAA

TAF KTCS 070520Z 0706/0806 28005KT P6SM SKC
FM071200 VRB03KT P6SM SKC
FM071900 17010G18KT P6SM FEW250
FM080200 26005KT P6SM BKN200

Example: see airport list